sensor_id;sensor_type;location;lat;lon;timestamp;temperature;humidity
13494;DHT22;6819;50.886;4.332;2024-02-15T00:02:15;13.30;99.90
13494;DHT22;6819;50.886;4.332;2024-02-15T00:04:41;13.30;99.90
13494;DHT22;6819;50.886;4.332;2024-02-15T00:07:08;13.30;99.90
13494;DHT22;6819;50.886;4.332;2024-02-15T00:09:34;13.30;99.90
13494;DHT22;6819;50.886;4.332;2024-02-15T00:11:59;13.30;99.90
13494;DHT22;6819;50.886;4.332;2024-02-15T00:14:26;13.30;99.90
13494;DHT22;6819;50.886;4.332;2024-02-15T00:16:53;13.40;99.90
13494;DHT22;6819;50.886;4.332;2024-02-15T00:19:19;13.40;99.90
13494;DHT22;6819;50.886;4.332;2024-02-15T00:21:44;13.30;99.90
13494;DHT22;6819;50.886;4.332;2024-02-15T00:24:10;13.40;99.90
13494;DHT22;6819;50.886;4.332;2024-02-15T00:26:36;13.30;99.90
13494;DHT22;6819;50.886;4.332;2024-02-15T00:29:02;13.30;99.90
13494;DHT22;6819;50.886;4.332;2024-02-15T00:31:28;13.30;99.90
13494;DHT22;6819;50.886;4.332;2024-02-15T00:33:53;13.30;99.90
13494;DHT22;6819;50.886;4.332;2024-02-15T00:36:20;13.40;99.90
13494;DHT22;6819;50.886;4.332;2024-02-15T00:38:46;13.40;99.90
13494;DHT22;6819;50.886;4.332;2024-02-15T00:41:11;13.40;99.90
13494;DHT22;6819;50.886;4.332;2024-02-15T11:23:29;16.90;99.90
13494;DHT22;6819;50.886;4.332;2024-02-15T11:25:55;16.90;99.90
13494;DHT22;6819;50.886;4.332;2024-02-15T11:30:53;17.20;99.90
13494;DHT22;6819;50.886;4.332;2024-02-15T11:33:32;17.30;99.90
13494;DHT22;6819;50.886;4.332;2024-02-15T11:36:07;17.40;99.90
13494;DHT22;6819;50.886;4.332;2024-02-15T11:38:34;17.40;99.90
13494;DHT22;6819;50.886;4.332;2024-02-15T11:41:04;17.40;99.90
13494;DHT22;6819;50.886;4.332;2024-02-15T11:46:11;17.30;99.90
13494;DHT22;6819;50.886;4.332;2024-02-15T11:48:39;17.10;99.90
13494;DHT22;6819;50.886;4.332;2024-02-15T11:51:05;17.10;99.90
13494;DHT22;6819;50.886;4.332;2024-02-15T11:53:32;17.20;99.90
13494;DHT22;6819;50.886;4.332;2024-02-15T11:56:01;17.20;99.90
13494;DHT22;6819;50.886;4.332;2024-02-15T11:58:30;17.30;99.90
13494;DHT22;6819;50.886;4.332;2024-02-15T12:01:16;17.00;99.90
13494;DHT22;6819;50.886;4.332;2024-02-15T12:04:01;17.10;99.90
13494;DHT22;6819;50.886;4.332;2024-02-15T12:06:45;17.20;99.90
13494;DHT22;6819;50.886;4.332;2024-02-15T12:09:29;17.20;99.90
13494;DHT22;6819;50.886;4.332;2024-02-15T12:12:13;16.90;99.90
13494;DHT22;6819;50.886;4.332;2024-02-15T12:15:00;16.80;99.90
13494;DHT22;6819;50.886;4.332;2024-02-15T12:17:45;16.80;99.90
13494;DHT22;6819;50.886;4.332;2024-02-15T12:20:29;16.80;99.90
13494;DHT22;6819;50.886;4.332;2024-02-15T12:22:56;16.80;99.90
13494;DHT22;6819;50.886;4.332;2024-02-15T12:25:23;16.70;99.90
13494;DHT22;6819;50.886;4.332;2024-02-15T12:27:54;16.60;99.90
13494;DHT22;6819;50.886;4.332;2024-02-15T12:30:20;16.70;99.90
13494;DHT22;6819;50.886;4.332;2024-02-15T12:32:50;16.70;99.90
13494;DHT22;6819;50.886;4.332;2024-02-15T12:35:21;16.80;99.90
13494;DHT22;6819;50.886;4.332;2024-02-15T12:38:09;16.80;99.90
13494;DHT22;6819;50.886;4.332;2024-02-15T12:40:39;16.90;99.90
13494;DHT22;6819;50.886;4.332;2024-02-15T12:43:08;17.00;99.90
13494;DHT22;6819;50.886;4.332;2024-02-15T12:45:39;17.10;99.90
13494;DHT22;6819;50.886;4.332;2024-02-15T12:48:07;17.10;99.90
13494;DHT22;6819;50.886;4.332;2024-02-15T12:50:34;17.30;99.90
13494;DHT22;6819;50.886;4.332;2024-02-15T12:53:00;17.20;99.90
13494;DHT22;6819;50.886;4.332;2024-02-15T12:55:36;17.40;99.90
13494;DHT22;6819;50.886;4.332;2024-02-15T12:58:09;17.50;99.90
13494;DHT22;6819;50.886;4.332;2024-02-15T13:00:40;17.20;99.90
13494;DHT22;6819;50.886;4.332;2024-02-15T13:03:08;17.30;99.90
13494;DHT22;6819;50.886;4.332;2024-02-15T13:05:37;17.20;99.90
13494;DHT22;6819;50.886;4.332;2024-02-15T13:08:03;17.40;99.90
13494;DHT22;6819;50.886;4.332;2024-02-15T13:10:31;17.40;99.90
13494;DHT22;6819;50.886;4.332;2024-02-15T13:12:58;17.60;99.90
13494;DHT22;6819;50.886;4.332;2024-02-15T13:15:24;18.00;99.90
13494;DHT22;6819;50.886;4.332;2024-02-15T13:17:58;18.70;99.90
13494;DHT22;6819;50.886;4.332;2024-02-15T13:20:24;18.60;99.90
13494;DHT22;6819;50.886;4.332;2024-02-15T13:23:04;18.30;99.90
13494;DHT22;6819;50.886;4.332;2024-02-15T13:25:35;18.20;99.90
13494;DHT22;6819;50.886;4.332;2024-02-15T13:28:02;18.10;99.90
13494;DHT22;6819;50.886;4.332;2024-02-15T13:30:29;18.30;99.90
13494;DHT22;6819;50.886;4.332;2024-02-15T13:32:56;18.60;99.90
13494;DHT22;6819;50.886;4.332;2024-02-15T13:35:22;18.60;99.90
13494;DHT22;6819;50.886;4.332;2024-02-15T13:37:53;19.30;99.90
13494;DHT22;6819;50.886;4.332;2024-02-15T13:40:21;20.00;99.90
13494;DHT22;6819;50.886;4.332;2024-02-15T13:42:52;20.50;99.90
13494;DHT22;6819;50.886;4.332;2024-02-15T13:45:41;20.00;99.90
13494;DHT22;6819;50.886;4.332;2024-02-15T13:48:07;19.80;99.90
13494;DHT22;6819;50.886;4.332;2024-02-15T13:50:34;20.60;99.90
13494;DHT22;6819;50.886;4.332;2024-02-15T13:53:00;20.80;99.90
13494;DHT22;6819;50.886;4.332;2024-02-15T13:55:27;20.00;99.90
13494;DHT22;6819;50.886;4.332;2024-02-15T13:57:54;20.20;99.90
13494;DHT22;6819;50.886;4.332;2024-02-15T14:00:24;19.40;99.90
13494;DHT22;6819;50.886;4.332;2024-02-15T14:02:59;18.60;99.90
13494;DHT22;6819;50.886;4.332;2024-02-15T14:05:26;18.50;99.90
13494;DHT22;6819;50.886;4.332;2024-02-15T14:07:58;18.30;99.90
13494;DHT22;6819;50.886;4.332;2024-02-15T14:10:26;18.20;99.90
13494;DHT22;6819;50.886;4.332;2024-02-15T14:12:53;18.00;99.90
13494;DHT22;6819;50.886;4.332;2024-02-15T14:15:21;18.00;99.90
13494;DHT22;6819;50.886;4.332;2024-02-15T14:17:47;17.70;99.90
13494;DHT22;6819;50.886;4.332;2024-02-15T14:20:13;17.70;99.90
13494;DHT22;6819;50.886;4.332;2024-02-15T14:22:40;17.70;99.90
13494;DHT22;6819;50.886;4.332;2024-02-15T14:25:06;17.60;99.90
13494;DHT22;6819;50.886;4.332;2024-02-15T14:27:32;17.50;99.90
13494;DHT22;6819;50.886;4.332;2024-02-15T14:29:58;17.50;99.90
13494;DHT22;6819;50.886;4.332;2024-02-15T14:32:45;17.50;99.90
13494;DHT22;6819;50.886;4.332;2024-02-15T14:35:38;17.40;99.90
13494;DHT22;6819;50.886;4.332;2024-02-15T14:38:09;17.40;99.90
13494;DHT22;6819;50.886;4.332;2024-02-15T14:40:41;17.30;99.90
13494;DHT22;6819;50.886;4.332;2024-02-15T14:43:08;17.40;99.90
13494;DHT22;6819;50.886;4.332;2024-02-15T14:45:39;17.40;99.90
13494;DHT22;6819;50.886;4.332;2024-02-15T14:48:09;17.60;99.90
13494;DHT22;6819;50.886;4.332;2024-02-15T14:50:41;17.50;99.90
13494;DHT22;6819;50.886;4.332;2024-02-15T14:53:07;17.60;99.90
13494;DHT22;6819;50.886;4.332;2024-02-15T14:55:37;17.40;99.90
13494;DHT22;6819;50.886;4.332;2024-02-15T14:58:08;17.50;99.90
13494;DHT22;6819;50.886;4.332;2024-02-15T15:00:34;17.40;99.90
13494;DHT22;6819;50.886;4.332;2024-02-15T15:03:00;17.50;99.90
13494;DHT22;6819;50.886;4.332;2024-02-15T15:05:28;17.40;99.90
13494;DHT22;6819;50.886;4.332;2024-02-15T15:08:12;17.30;99.90
13494;DHT22;6819;50.886;4.332;2024-02-15T15:10:56;17.30;99.90
13494;DHT22;6819;50.886;4.332;2024-02-15T15:13:40;17.30;99.90
13494;DHT22;6819;50.886;4.332;2024-02-15T15:16:06;17.40;99.90
13494;DHT22;6819;50.886;4.332;2024-02-15T15:18:33;17.50;99.90
13494;DHT22;6819;50.886;4.332;2024-02-15T15:21:01;17.50;99.90
13494;DHT22;6819;50.886;4.332;2024-02-15T15:23:27;17.50;99.90
13494;DHT22;6819;50.886;4.332;2024-02-15T15:25:59;17.60;99.90
13494;DHT22;6819;50.886;4.332;2024-02-15T15:28:25;17.70;99.90
13494;DHT22;6819;50.886;4.332;2024-02-15T15:30:51;17.80;99.90
13494;DHT22;6819;50.886;4.332;2024-02-15T15:33:17;17.80;99.90
13494;DHT22;6819;50.886;4.332;2024-02-15T15:35:43;18.00;99.90
13494;DHT22;6819;50.886;4.332;2024-02-15T15:38:10;18.00;99.90
13494;DHT22;6819;50.886;4.332;2024-02-15T15:40:35;18.00;99.90
13494;DHT22;6819;50.886;4.332;2024-02-15T15:43:01;17.80;99.90
13494;DHT22;6819;50.886;4.332;2024-02-15T15:45:32;17.80;99.90
13494;DHT22;6819;50.886;4.332;2024-02-15T15:47:58;17.80;99.90
13494;DHT22;6819;50.886;4.332;2024-02-15T15:50:26;17.80;99.90
13494;DHT22;6819;50.886;4.332;2024-02-15T15:52:53;17.80;99.90
13494;DHT22;6819;50.886;4.332;2024-02-15T15:55:19;17.70;99.90
13494;DHT22;6819;50.886;4.332;2024-02-15T15:57:45;17.60;99.90
13494;DHT22;6819;50.886;4.332;2024-02-15T16:00:12;17.50;99.90
13494;DHT22;6819;50.886;4.332;2024-02-15T16:02:44;17.40;99.90
13494;DHT22;6819;50.886;4.332;2024-02-15T16:05:11;17.30;99.90
13494;DHT22;6819;50.886;4.332;2024-02-15T16:07:46;17.20;99.90
13494;DHT22;6819;50.886;4.332;2024-02-15T16:10:12;17.10;99.90
13494;DHT22;6819;50.886;4.332;2024-02-15T16:12:42;17.10;99.90
13494;DHT22;6819;50.886;4.332;2024-02-15T16:15:09;17.00;99.90
13494;DHT22;6819;50.886;4.332;2024-02-15T16:17:37;16.90;99.90
13494;DHT22;6819;50.886;4.332;2024-02-15T16:20:05;16.90;99.90
13494;DHT22;6819;50.886;4.332;2024-02-15T16:22:37;16.90;99.90
13494;DHT22;6819;50.886;4.332;2024-02-15T16:25:04;16.80;99.90
13494;DHT22;6819;50.886;4.332;2024-02-15T16:27:35;16.70;99.90
13494;DHT22;6819;50.886;4.332;2024-02-15T16:30:03;16.70;99.90
13494;DHT22;6819;50.886;4.332;2024-02-15T16:32:30;16.60;99.90
13494;DHT22;6819;50.886;4.332;2024-02-15T16:34:59;16.60;99.90
13494;DHT22;6819;50.886;4.332;2024-02-15T16:37:25;16.40;99.90
13494;DHT22;6819;50.886;4.332;2024-02-15T16:39:54;16.40;99.90
13494;DHT22;6819;50.886;4.332;2024-02-15T16:42:20;16.30;99.90
13494;DHT22;6819;50.886;4.332;2024-02-15T16:44:46;16.20;99.90
13494;DHT22;6819;50.886;4.332;2024-02-15T16:47:14;16.10;99.90
13494;DHT22;6819;50.886;4.332;2024-02-15T16:49:44;16.10;99.90
13494;DHT22;6819;50.886;4.332;2024-02-15T16:52:11;16.00;99.90
13494;DHT22;6819;50.886;4.332;2024-02-15T16:54:36;16.00;99.90
13494;DHT22;6819;50.886;4.332;2024-02-15T16:57:03;16.00;99.90
13494;DHT22;6819;50.886;4.332;2024-02-15T16:59:29;15.90;99.90
13494;DHT22;6819;50.886;4.332;2024-02-15T17:01:57;15.90;99.90
13494;DHT22;6819;50.886;4.332;2024-02-15T17:04:23;15.90;99.90
13494;DHT22;6819;50.886;4.332;2024-02-15T17:06:50;15.80;99.90
13494;DHT22;6819;50.886;4.332;2024-02-15T17:09:16;15.80;99.90
13494;DHT22;6819;50.886;4.332;2024-02-15T17:11:43;15.70;99.90
13494;DHT22;6819;50.886;4.332;2024-02-15T17:14:10;15.70;99.90
13494;DHT22;6819;50.886;4.332;2024-02-15T17:16:36;15.70;99.90
13494;DHT22;6819;50.886;4.332;2024-02-15T17:19:04;15.60;99.90
13494;DHT22;6819;50.886;4.332;2024-02-15T17:21:31;15.60;99.90
13494;DHT22;6819;50.886;4.332;2024-02-15T17:24:02;15.60;99.90
13494;DHT22;6819;50.886;4.332;2024-02-15T17:26:30;15.50;99.90
13494;DHT22;6819;50.886;4.332;2024-02-15T17:28:56;15.50;99.90
13494;DHT22;6819;50.886;4.332;2024-02-15T17:31:26;15.40;99.90
13494;DHT22;6819;50.886;4.332;2024-02-15T17:33:52;15.30;99.90
13494;DHT22;6819;50.886;4.332;2024-02-15T17:36:17;15.30;99.90
13494;DHT22;6819;50.886;4.332;2024-02-15T17:38:43;15.30;99.90
13494;DHT22;6819;50.886;4.332;2024-02-15T17:41:11;15.40;99.90
13494;DHT22;6819;50.886;4.332;2024-02-15T17:43:37;15.30;99.90
13494;DHT22;6819;50.886;4.332;2024-02-15T17:46:02;15.20;99.90
13494;DHT22;6819;50.886;4.332;2024-02-15T17:48:29;15.20;99.90
13494;DHT22;6819;50.886;4.332;2024-02-15T17:50:56;15.10;99.90
13494;DHT22;6819;50.886;4.332;2024-02-15T17:53:23;15.10;99.90
13494;DHT22;6819;50.886;4.332;2024-02-15T17:55:49;15.10;99.90
13494;DHT22;6819;50.886;4.332;2024-02-15T17:58:18;15.10;99.90
13494;DHT22;6819;50.886;4.332;2024-02-15T18:00:44;15.00;99.90
13494;DHT22;6819;50.886;4.332;2024-02-15T18:03:10;15.00;99.90
13494;DHT22;6819;50.886;4.332;2024-02-15T18:05:37;15.00;99.90
13494;DHT22;6819;50.886;4.332;2024-02-15T18:08:04;15.00;99.90
13494;DHT22;6819;50.886;4.332;2024-02-15T18:10:30;15.00;99.90
13494;DHT22;6819;50.886;4.332;2024-02-15T18:12:56;14.90;99.90
13494;DHT22;6819;50.886;4.332;2024-02-15T18:15:21;14.90;99.90
13494;DHT22;6819;50.886;4.332;2024-02-15T18:17:54;14.90;99.90
13494;DHT22;6819;50.886;4.332;2024-02-15T18:20:20;14.90;99.90
13494;DHT22;6819;50.886;4.332;2024-02-15T18:22:51;14.90;99.90
13494;DHT22;6819;50.886;4.332;2024-02-15T18:25:17;14.80;99.90
13494;DHT22;6819;50.886;4.332;2024-02-15T18:27:43;14.80;99.90
13494;DHT22;6819;50.886;4.332;2024-02-15T18:30:09;14.80;99.90
13494;DHT22;6819;50.886;4.332;2024-02-15T18:32:44;14.80;99.90
13494;DHT22;6819;50.886;4.332;2024-02-15T18:35:10;14.70;99.90
13494;DHT22;6819;50.886;4.332;2024-02-15T18:37:40;14.70;99.90
13494;DHT22;6819;50.886;4.332;2024-02-15T18:40:07;14.70;99.90
13494;DHT22;6819;50.886;4.332;2024-02-15T18:42:34;14.70;99.90
13494;DHT22;6819;50.886;4.332;2024-02-15T18:45:04;14.70;99.90
13494;DHT22;6819;50.886;4.332;2024-02-15T18:47:30;14.70;99.90
13494;DHT22;6819;50.886;4.332;2024-02-15T18:49:56;14.70;99.90
13494;DHT22;6819;50.886;4.332;2024-02-15T18:52:22;14.60;99.90
13494;DHT22;6819;50.886;4.332;2024-02-15T18:54:48;14.60;99.90
13494;DHT22;6819;50.886;4.332;2024-02-15T18:57:16;14.60;99.90
13494;DHT22;6819;50.886;4.332;2024-02-15T18:59:42;14.50;99.90
13494;DHT22;6819;50.886;4.332;2024-02-15T19:02:09;14.50;99.90
13494;DHT22;6819;50.886;4.332;2024-02-15T19:04:36;14.50;99.90
13494;DHT22;6819;50.886;4.332;2024-02-15T19:07:04;14.50;99.90
13494;DHT22;6819;50.886;4.332;2024-02-15T19:09:31;14.50;99.90
13494;DHT22;6819;50.886;4.332;2024-02-15T19:11:57;14.40;99.90
13494;DHT22;6819;50.886;4.332;2024-02-15T19:14:24;14.40;99.90
13494;DHT22;6819;50.886;4.332;2024-02-15T19:16:50;14.40;99.90
13494;DHT22;6819;50.886;4.332;2024-02-15T19:19:16;14.40;99.90
13494;DHT22;6819;50.886;4.332;2024-02-15T19:21:45;14.40;99.90
13494;DHT22;6819;50.886;4.332;2024-02-15T19:24:11;14.40;99.90
13494;DHT22;6819;50.886;4.332;2024-02-15T19:26:37;14.40;99.90
13494;DHT22;6819;50.886;4.332;2024-02-15T19:29:10;14.40;99.90
13494;DHT22;6819;50.886;4.332;2024-02-15T19:31:37;14.30;99.90
13494;DHT22;6819;50.886;4.332;2024-02-15T19:34:07;14.30;99.90
13494;DHT22;6819;50.886;4.332;2024-02-15T19:36:33;14.20;99.90
13494;DHT22;6819;50.886;4.332;2024-02-15T19:39:02;14.20;99.90
13494;DHT22;6819;50.886;4.332;2024-02-15T19:41:49;14.20;99.90
13494;DHT22;6819;50.886;4.332;2024-02-15T19:44:15;14.10;99.90
13494;DHT22;6819;50.886;4.332;2024-02-15T19:46:41;14.10;99.90
13494;DHT22;6819;50.886;4.332;2024-02-15T19:49:08;14.10;99.90
13494;DHT22;6819;50.886;4.332;2024-02-15T19:51:37;14.10;99.90
13494;DHT22;6819;50.886;4.332;2024-02-15T19:54:03;14.00;99.90
13494;DHT22;6819;50.886;4.332;2024-02-15T19:56:30;14.00;99.90
13494;DHT22;6819;50.886;4.332;2024-02-15T19:58:59;14.00;99.90
13494;DHT22;6819;50.886;4.332;2024-02-15T20:01:26;14.00;99.90
13494;DHT22;6819;50.886;4.332;2024-02-15T20:03:52;14.00;99.90
13494;DHT22;6819;50.886;4.332;2024-02-15T20:06:18;14.00;99.90
13494;DHT22;6819;50.886;4.332;2024-02-15T20:08:45;14.00;99.90
13494;DHT22;6819;50.886;4.332;2024-02-15T20:11:11;14.10;99.90
13494;DHT22;6819;50.886;4.332;2024-02-15T20:13:37;14.10;99.90
13494;DHT22;6819;50.886;4.332;2024-02-15T20:16:04;14.10;99.90
13494;DHT22;6819;50.886;4.332;2024-02-15T20:18:36;14.10;99.90
13494;DHT22;6819;50.886;4.332;2024-02-15T20:21:02;14.10;99.90
13494;DHT22;6819;50.886;4.332;2024-02-15T20:23:30;14.00;99.90
13494;DHT22;6819;50.886;4.332;2024-02-15T20:25:56;14.00;99.90
13494;DHT22;6819;50.886;4.332;2024-02-15T20:28:22;14.10;99.90
13494;DHT22;6819;50.886;4.332;2024-02-15T20:30:48;14.10;99.90
13494;DHT22;6819;50.886;4.332;2024-02-15T20:33:13;14.10;99.90
13494;DHT22;6819;50.886;4.332;2024-02-15T20:35:43;14.10;99.90
13494;DHT22;6819;50.886;4.332;2024-02-15T20:38:10;14.10;99.90
13494;DHT22;6819;50.886;4.332;2024-02-15T20:40:38;14.10;99.90
13494;DHT22;6819;50.886;4.332;2024-02-15T20:43:04;14.10;99.90
13494;DHT22;6819;50.886;4.332;2024-02-15T20:45:30;14.10;99.90
13494;DHT22;6819;50.886;4.332;2024-02-15T20:47:56;14.10;99.90
13494;DHT22;6819;50.886;4.332;2024-02-15T20:50:21;14.10;99.90
13494;DHT22;6819;50.886;4.332;2024-02-15T20:52:47;14.10;99.90
13494;DHT22;6819;50.886;4.332;2024-02-15T20:55:13;14.10;99.90
13494;DHT22;6819;50.886;4.332;2024-02-15T20:57:39;14.10;99.90
13494;DHT22;6819;50.886;4.332;2024-02-15T21:00:06;14.10;99.90
13494;DHT22;6819;50.886;4.332;2024-02-15T21:02:40;14.10;99.90
13494;DHT22;6819;50.886;4.332;2024-02-15T21:05:09;14.10;99.90
13494;DHT22;6819;50.886;4.332;2024-02-15T21:07:36;14.20;99.90
13494;DHT22;6819;50.886;4.332;2024-02-15T21:10:04;14.10;99.90
13494;DHT22;6819;50.886;4.332;2024-02-15T21:12:33;14.10;99.90
13494;DHT22;6819;50.886;4.332;2024-02-15T21:14:58;14.10;99.90
13494;DHT22;6819;50.886;4.332;2024-02-15T21:17:26;14.20;99.90
13494;DHT22;6819;50.886;4.332;2024-02-15T21:19:51;14.20;99.90
13494;DHT22;6819;50.886;4.332;2024-02-15T21:22:17;14.10;99.90
13494;DHT22;6819;50.886;4.332;2024-02-15T21:24:43;14.10;99.90
13494;DHT22;6819;50.886;4.332;2024-02-15T21:27:08;14.20;99.90
13494;DHT22;6819;50.886;4.332;2024-02-15T21:29:34;14.10;99.90
13494;DHT22;6819;50.886;4.332;2024-02-15T21:32:01;14.10;99.90
13494;DHT22;6819;50.886;4.332;2024-02-15T21:34:28;14.20;99.90
13494;DHT22;6819;50.886;4.332;2024-02-15T21:36:54;14.20;99.90
13494;DHT22;6819;50.886;4.332;2024-02-15T21:39:20;14.20;99.90
13494;DHT22;6819;50.886;4.332;2024-02-15T21:41:50;14.20;99.90
13494;DHT22;6819;50.886;4.332;2024-02-15T21:44:16;14.30;99.90
13494;DHT22;6819;50.886;4.332;2024-02-15T21:46:42;14.30;99.90
13494;DHT22;6819;50.886;4.332;2024-02-15T21:49:07;14.30;99.90
13494;DHT22;6819;50.886;4.332;2024-02-15T21:51:33;14.30;99.90
13494;DHT22;6819;50.886;4.332;2024-02-15T21:53:59;14.20;99.90
13494;DHT22;6819;50.886;4.332;2024-02-15T21:56:24;14.20;99.90
13494;DHT22;6819;50.886;4.332;2024-02-15T21:58:50;14.20;99.90
13494;DHT22;6819;50.886;4.332;2024-02-15T22:01:16;14.20;99.90
13494;DHT22;6819;50.886;4.332;2024-02-15T22:03:42;14.20;99.90
13494;DHT22;6819;50.886;4.332;2024-02-15T22:06:11;14.20;99.90
13494;DHT22;6819;50.886;4.332;2024-02-15T22:08:36;14.20;99.90
13494;DHT22;6819;50.886;4.332;2024-02-15T22:11:02;14.20;99.90
13494;DHT22;6819;50.886;4.332;2024-02-15T22:13:28;14.20;99.90
13494;DHT22;6819;50.886;4.332;2024-02-15T22:15:55;14.20;99.90
13494;DHT22;6819;50.886;4.332;2024-02-15T22:18:21;14.20;99.90
13494;DHT22;6819;50.886;4.332;2024-02-15T22:20:47;14.20;99.90
13494;DHT22;6819;50.886;4.332;2024-02-15T22:23:14;14.20;99.90
13494;DHT22;6819;50.886;4.332;2024-02-15T22:25:39;14.10;99.90
13494;DHT22;6819;50.886;4.332;2024-02-15T22:28:05;14.20;99.90
13494;DHT22;6819;50.886;4.332;2024-02-15T22:30:31;14.10;99.90
13494;DHT22;6819;50.886;4.332;2024-02-15T22:32:57;14.10;99.90
13494;DHT22;6819;50.886;4.332;2024-02-15T22:35:24;14.10;99.90
13494;DHT22;6819;50.886;4.332;2024-02-15T22:37:49;14.10;99.90
13494;DHT22;6819;50.886;4.332;2024-02-15T22:40:15;14.10;99.90
13494;DHT22;6819;50.886;4.332;2024-02-15T22:42:41;14.10;99.90
13494;DHT22;6819;50.886;4.332;2024-02-15T22:45:07;14.10;99.90
13494;DHT22;6819;50.886;4.332;2024-02-15T22:47:35;14.10;99.90
13494;DHT22;6819;50.886;4.332;2024-02-15T22:50:00;14.10;99.90
13494;DHT22;6819;50.886;4.332;2024-02-15T22:52:26;14.10;99.90
13494;DHT22;6819;50.886;4.332;2024-02-15T22:54:53;14.00;99.90
13494;DHT22;6819;50.886;4.332;2024-02-15T22:57:19;14.00;99.90
13494;DHT22;6819;50.886;4.332;2024-02-15T22:59:45;14.10;99.90
13494;DHT22;6819;50.886;4.332;2024-02-15T23:02:11;14.10;99.90
13494;DHT22;6819;50.886;4.332;2024-02-15T23:04:37;14.10;99.90
13494;DHT22;6819;50.886;4.332;2024-02-15T23:07:03;14.10;99.90
13494;DHT22;6819;50.886;4.332;2024-02-15T23:09:34;14.10;99.90
13494;DHT22;6819;50.886;4.332;2024-02-15T23:12:00;14.00;99.90
13494;DHT22;6819;50.886;4.332;2024-02-15T23:14:27;14.00;99.90
13494;DHT22;6819;50.886;4.332;2024-02-15T23:16:54;14.00;99.90
13494;DHT22;6819;50.886;4.332;2024-02-15T23:19:19;14.00;99.90
13494;DHT22;6819;50.886;4.332;2024-02-15T23:21:45;14.00;99.90
13494;DHT22;6819;50.886;4.332;2024-02-15T23:24:11;14.00;99.90
13494;DHT22;6819;50.886;4.332;2024-02-15T23:26:37;14.00;99.90
13494;DHT22;6819;50.886;4.332;2024-02-15T23:29:03;14.00;99.90
13494;DHT22;6819;50.886;4.332;2024-02-15T23:31:29;14.00;99.90
13494;DHT22;6819;50.886;4.332;2024-02-15T23:33:55;14.00;99.90
13494;DHT22;6819;50.886;4.332;2024-02-15T23:36:20;14.00;99.90
13494;DHT22;6819;50.886;4.332;2024-02-15T23:39:04;14.00;99.90
13494;DHT22;6819;50.886;4.332;2024-02-15T23:41:48;14.00;99.90
13494;DHT22;6819;50.886;4.332;2024-02-15T23:44:14;14.00;99.90
13494;DHT22;6819;50.886;4.332;2024-02-15T23:46:44;13.90;99.90
13494;DHT22;6819;50.886;4.332;2024-02-15T23:49:09;14.00;99.90
13494;DHT22;6819;50.886;4.332;2024-02-15T23:51:36;14.00;99.90
13494;DHT22;6819;50.886;4.332;2024-02-15T23:54:02;14.00;99.90
13494;DHT22;6819;50.886;4.332;2024-02-15T23:56:27;14.10;99.90
13494;DHT22;6819;50.886;4.332;2024-02-15T23:58:53;14.10;99.90
